createdAt,value
2023-02-23T00:01:26.104Z,80.16
2023-02-23T00:06:29.773Z,80.34
2023-02-23T00:11:33.624Z,80.88
2023-02-23T00:16:35.367Z,80.80
2023-02-23T00:21:37.202Z,81.13
2023-02-23T00:26:39.970Z,81.18
2023-02-23T00:31:44.346Z,81.42
2023-02-23T00:36:49.448Z,81.39
2023-02-23T00:41:52.583Z,81.57
2023-02-23T00:46:54.623Z,81.51
2023-02-23T00:51:56.799Z,81.82
2023-02-23T00:56:58.538Z,82.24
2023-02-23T01:02:00.201Z,82.13
2023-02-23T01:07:06.434Z,82.26
2023-02-23T01:12:08.162Z,82.46
2023-02-23T01:17:10.385Z,82.77
2023-02-23T01:22:12.091Z,82.34
2023-02-23T01:27:15.442Z,82.67
2023-02-23T01:32:17.211Z,83.05
2023-02-23T01:37:19.070Z,83.41
2023-02-23T01:42:22.824Z,83.63
2023-02-23T01:47:26.764Z,83.56
2023-02-23T01:52:28.518Z,83.69
2023-02-23T01:57:30.391Z,83.84
2023-02-23T02:02:33.953Z,83.56
2023-02-23T02:07:36.883Z,83.57
2023-02-23T02:12:40.042Z,83.23
2023-02-23T02:18:03.599Z,83.37
2023-02-23T02:23:37.733Z,83.02
2023-02-23T02:29:01.121Z,83.03
2023-02-23T02:34:32.636Z,82.80
2023-02-23T02:40:16.440Z,82.88
2023-02-23T02:45:37.417Z,82.69
2023-02-23T02:50:46.579Z,82.57
2023-02-23T02:55:50.374Z,82.63
2023-02-23T03:01:12.190Z,82.56
2023-02-23T03:06:33.588Z,82.50
2023-02-23T03:12:10.800Z,82.80
2023-02-23T03:18:02.104Z,82.65
2023-02-23T03:23:55.344Z,83.01
2023-02-23T03:29:49.384Z,83.07
2023-02-23T03:35:25.691Z,82.98
2023-02-23T03:40:56.160Z,82.99
2023-02-23T03:46:20.325Z,82.92
2023-02-23T03:51:44.771Z,83.40
2023-02-23T03:57:09.747Z,83.57
2023-02-23T04:02:33.802Z,83.40
2023-02-23T04:07:59.018Z,83.51
2023-02-23T04:13:16.337Z,83.79
2023-02-23T04:18:24.414Z,83.87
2023-02-23T04:23:27.342Z,84.00
2023-02-23T04:28:29.291Z,83.92
2023-02-23T04:33:31.123Z,83.92
2023-02-23T04:38:32.807Z,84.11
2023-02-23T04:43:34.515Z,84.01
2023-02-23T04:48:36.176Z,84.14
2023-02-23T04:53:38.509Z,83.90
2023-02-23T04:58:40.201Z,84.02
2023-02-23T05:03:41.840Z,83.89
2023-02-23T05:08:44.240Z,83.89
2023-02-23T05:13:45.948Z,84.06
2023-02-23T05:18:47.682Z,84.16
2023-02-23T05:23:49.716Z,84.15
2023-02-23T05:28:51.499Z,84.23
2023-02-23T05:33:53.209Z,84.43
2023-02-23T05:38:55.171Z,84.48
2023-02-23T05:43:56.888Z,84.28
2023-02-23T05:49:00.997Z,84.30
2023-02-23T05:54:02.762Z,84.25
2023-02-23T05:59:04.904Z,84.39
2023-02-23T06:04:06.768Z,84.37
2023-02-23T06:09:08.506Z,84.32
2023-02-23T06:14:10.163Z,84.19
2023-02-23T06:19:11.905Z,84.00
2023-02-23T06:24:13.647Z,83.88
2023-02-23T06:29:15.642Z,83.86
2023-02-23T06:34:17.465Z,83.78
2023-02-23T06:39:19.143Z,83.46
2023-02-23T06:44:21.158Z,83.41
2023-02-23T06:49:22.999Z,82.83
2023-02-23T06:54:26.391Z,82.72
2023-02-23T06:59:28.145Z,82.44
2023-02-23T07:04:29.955Z,81.63
2023-02-23T07:09:31.854Z,81.62
2023-02-23T07:14:33.678Z,81.02
2023-02-23T07:19:35.491Z,80.55
2023-02-23T07:24:38.504Z,79.95
2023-02-23T07:29:40.245Z,79.18
2023-02-23T07:34:41.925Z,79.01
2023-02-23T07:39:44.115Z,78.44
2023-02-23T07:44:45.900Z,78.08
2023-02-23T07:49:47.584Z,77.39
2023-02-23T07:54:49.287Z,77.37
2023-02-23T07:59:58.704Z,77.34
2023-02-23T08:05:00.390Z,76.60
2023-02-23T08:10:02.179Z,75.99
2023-02-23T08:15:08.192Z,75.14
2023-02-23T08:20:10.679Z,75.19
2023-02-23T08:25:12.365Z,74.73
2023-02-23T08:30:15.543Z,74.36
2023-02-23T08:35:20.076Z,73.66
2023-02-23T08:40:21.796Z,72.57
2023-02-23T08:45:23.458Z,72.68
2023-02-23T08:50:27.332Z,72.31
2023-02-23T08:55:29.180Z,72.09
2023-02-23T09:00:31.370Z,71.90
2023-02-23T09:05:36.716Z,71.09
2023-02-23T09:10:38.637Z,69.81
2023-02-23T09:15:40.996Z,69.34
2023-02-23T09:20:44.165Z,68.57
2023-02-23T09:25:46.470Z,67.74
2023-02-23T09:30:48.592Z,67.06
2023-02-23T09:35:50.267Z,66.49
2023-02-23T09:40:55.392Z,66.62
2023-02-23T09:46:31.355Z,65.85
2023-02-23T09:51:40.753Z,64.88
2023-02-23T09:56:46.971Z,63.79
2023-02-23T10:01:48.752Z,63.39
2023-02-23T10:07:25.076Z,63.14
2023-02-23T10:12:42.284Z,62.57
2023-02-23T10:18:45.672Z,62.48
2023-02-23T10:23:59.447Z,61.57
2023-02-23T10:29:01.108Z,61.54
2023-02-23T10:34:09.958Z,60.68
2023-02-23T10:39:13.542Z,59.67
2023-02-23T10:44:21.493Z,59.70
2023-02-23T10:49:30.329Z,60.31
2023-02-23T10:54:48.417Z,60.62
2023-02-23T11:00:07.093Z,60.11
2023-02-23T11:05:29.256Z,58.82
2023-02-23T11:10:32.185Z,59.33
2023-02-23T11:15:49.807Z,59.22
2023-02-23T11:20:52.627Z,58.23
2023-02-23T11:26:00.264Z,58.40
2023-02-23T11:31:15.854Z,58.18
2023-02-23T11:36:37.220Z,57.28
2023-02-23T11:41:38.892Z,56.52
2023-02-23T11:46:45.705Z,56.49
2023-02-23T11:51:49.876Z,55.51
2023-02-23T11:56:54.065Z,55.20
2023-02-23T12:02:05.186Z,55.29
2023-02-23T12:07:38.731Z,55.22
2023-02-23T12:13:22.995Z,55.48
2023-02-23T12:18:27.618Z,55.25
2023-02-23T12:23:34.969Z,54.40
2023-02-23T12:28:47.986Z,53.79
2023-02-23T12:34:01.261Z,53.92
2023-02-23T12:39:11.878Z,54.05
2023-02-23T12:44:29.770Z,53.26
2023-02-23T12:49:46.058Z,52.97
2023-02-23T12:54:48.103Z,53.80
2023-02-23T13:00:24.003Z,53.72
2023-02-23T13:05:32.238Z,53.44
2023-02-23T13:10:59.626Z,53.08
2023-02-23T13:16:05.657Z,53.07
2023-02-23T13:21:16.467Z,53.00
2023-02-23T13:26:27.017Z,53.00
2023-02-23T13:31:35.402Z,52.88
2023-02-23T13:36:40.726Z,52.57
2023-02-23T13:42:20.294Z,52.83
2023-02-23T13:47:21.934Z,52.41
2023-02-23T13:52:40.877Z,53.13
2023-02-23T13:57:43.833Z,52.58
2023-02-23T14:02:46.446Z,53.17
2023-02-23T14:08:02.945Z,53.20
2023-02-23T14:13:06.957Z,53.51
2023-02-23T14:18:20.971Z,53.45
2023-02-23T14:23:22.763Z,54.00
2023-02-23T14:28:34.414Z,54.57
2023-02-23T14:33:50.031Z,54.37
2023-02-23T14:38:54.462Z,55.51
2023-02-23T14:44:03.284Z,55.92
2023-02-23T14:49:11.783Z,55.95
2023-02-23T14:54:42.770Z,56.63
2023-02-23T14:59:46.165Z,57.43
2023-02-23T15:04:47.899Z,57.75
2023-02-23T15:09:52.325Z,58.15
2023-02-23T15:15:00.932Z,58.47
2023-02-23T15:20:16.213Z,58.55
2023-02-23T15:25:23.961Z,58.89
2023-02-23T15:30:32.663Z,59.25
2023-02-23T15:35:52.654Z,59.78
2023-02-23T15:40:58.144Z,60.64
2023-02-23T15:46:06.195Z,61.10
2023-02-23T15:51:17.528Z,61.65
2023-02-23T15:56:28.413Z,62.14
2023-02-23T16:01:31.890Z,62.66
2023-02-23T16:06:50.923Z,63.08
2023-02-23T16:12:00.307Z,63.63
2023-02-23T16:17:10.979Z,63.95
2023-02-23T16:22:24.798Z,64.32
2023-02-23T16:27:28.268Z,64.56
2023-02-23T16:32:36.687Z,65.09
2023-02-23T16:38:00.848Z,65.17
2023-02-23T16:43:02.729Z,65.49
2023-02-23T16:48:04.700Z,66.19
2023-02-23T16:53:10.047Z,66.17
2023-02-23T16:58:19.163Z,66.30
2023-02-23T17:03:26.702Z,66.27
2023-02-23T17:08:28.585Z,66.39
2023-02-23T17:13:33.254Z,66.14
2023-02-23T17:18:37.175Z,66.54
2023-02-23T17:23:48.199Z,66.89
2023-02-23T17:28:50.771Z,66.69
2023-02-23T17:33:53.671Z,67.03
2023-02-23T17:38:58.712Z,66.89
2023-02-23T17:44:02.628Z,67.00
2023-02-23T17:49:04.983Z,67.14
2023-02-23T17:54:07.186Z,67.04
2023-02-23T17:59:09.083Z,67.10
2023-02-23T18:04:11.211Z,67.23
2023-02-23T18:09:14.454Z,67.03
2023-02-23T18:14:17.363Z,67.25
2023-02-23T18:19:19.926Z,67.15
2023-02-23T18:24:26.314Z,67.32
2023-02-23T18:29:29.915Z,67.04
2023-02-23T18:34:31.807Z,67.40
2023-02-23T18:39:34.697Z,67.42
2023-02-23T18:44:36.347Z,67.56
2023-02-23T18:49:39.529Z,67.56
2023-02-23T18:54:41.619Z,67.75
2023-02-23T18:59:43.960Z,67.58
2023-02-23T19:05:02.738Z,67.60
2023-02-23T19:10:07.109Z,67.97
2023-02-23T19:15:09.777Z,68.15
2023-02-23T19:20:13.361Z,67.83
2023-02-23T19:25:15.481Z,67.72
2023-02-23T19:30:17.509Z,68.08
2023-02-23T19:35:19.402Z,68.19
2023-02-23T19:40:24.002Z,68.10
2023-02-23T19:45:25.945Z,68.11
2023-02-23T19:50:28.436Z,67.94
2023-02-23T19:55:30.344Z,68.55
2023-02-23T20:00:37.285Z,68.55
2023-02-23T20:05:42.882Z,68.25
2023-02-23T20:10:45.332Z,68.05
2023-02-23T20:15:47.116Z,67.86
2023-02-23T20:20:48.972Z,67.55
2023-02-23T20:25:50.648Z,67.40
2023-02-23T20:30:52.409Z,67.39
2023-02-23T20:35:56.109Z,67.09
2023-02-23T20:40:58.808Z,66.65
2023-02-23T20:46:01.170Z,66.58
2023-02-23T20:51:03.698Z,66.44
2023-02-23T20:56:06.513Z,66.64
2023-02-23T21:01:22.305Z,66.65
2023-02-23T21:06:26.100Z,66.65
2023-02-23T21:11:28.320Z,66.84
2023-02-23T21:16:32.295Z,66.90
2023-02-23T21:21:42.743Z,67.00
2023-02-23T21:26:45.157Z,67.04
2023-02-23T21:31:47.091Z,67.25
2023-02-23T21:36:49.886Z,67.53
2023-02-23T21:41:51.721Z,67.60
2023-02-23T21:46:53.503Z,67.71
2023-02-23T21:51:55.217Z,67.73
2023-02-23T21:56:56.938Z,67.79
2023-02-23T22:01:58.709Z,67.97
2023-02-23T22:07:00.446Z,68.05
2023-02-23T22:12:02.438Z,68.06
2023-02-23T22:17:06.361Z,67.94
2023-02-23T22:22:08.360Z,68.18
2023-02-23T22:27:10.446Z,68.13
2023-02-23T22:32:13.774Z,68.12
2023-02-23T22:37:15.530Z,68.39
2023-02-23T22:42:17.361Z,68.41
2023-02-23T22:47:19.056Z,68.48
2023-02-23T22:52:20.796Z,68.89
2023-02-23T22:57:22.512Z,68.74
2023-02-23T23:02:24.232Z,68.95
2023-02-23T23:07:26.122Z,69.23
2023-02-23T23:12:28.714Z,69.15
2023-02-23T23:17:31.778Z,69.38
2023-02-23T23:22:35.418Z,69.42
2023-02-23T23:27:41.302Z,69.96
2023-02-23T23:32:43.273Z,69.97
2023-02-23T23:37:45.321Z,69.96
2023-02-23T23:42:48.111Z,70.28
2023-02-23T23:47:50.019Z,70.05
2023-02-23T23:52:51.882Z,70.43
2023-02-23T23:57:53.554Z,70.67
